Time;durP1;ratioP1;P1;durP2;ratioP2;P2;SDS_P1;SDS_P2;PMS_P1;PMS_P2;Temp;Humidity;BMP_temperature;BMP_pressure;BME280_temperature;BME280_humidity;BME280_pressure;Samples;Min_cycle;Max_cycle;Signal;HPM_P1;HPM_P2
2021/03/01 00:00:52;;;;;;;16.00;7.60;;;;;;;0.97;77.30;98040.28;5124453;28;20051;-63
2021/03/01 00:03:37;;;;;;;15.10;6.93;;;;;;;0.89;77.95;98024.50;5124953;28;20472;-63
2021/03/01 00:06:21;;;;;;;18.42;7.80;;;;;;;1.35;77.27;98074.06;5124369;28;20046;-62
2021/03/01 00:09:06;;;;;;;12.63;7.07;;;;;;;-1.01;77.99;97696.34;5124869;28;20100;-64
2021/03/01 00:11:50;;;;;;;15.80;7.10;;;;;;;0.82;77.21;98020.50;5108662;28;20038;-64
2021/03/01 00:14:34;;;;;;;22.75;7.80;;;;;;;1.11;78.21;98106.72;5108206;28;20130;-63
2021/03/01 00:17:18;;;;;;;19.88;7.38;;;;;;;0.62;78.38;98010.53;5108289;28;20051;-62
2021/03/01 00:20:11;;;;;;;19.33;8.07;;;;;;;0.77;79.14;98051.34;5125993;27;20517;-62
2021/03/01 00:22:55;;;;;;;23.70;8.75;;;;;;;-0.18;77.75;97883.00;5128324;27;20506;-65
2021/03/01 00:25:40;;;;;;;19.98;9.10;;;;;;;0.47;78.59;97986.13;5112301;27;20058;-62
2021/03/01 00:28:24;;;;;;;24.38;9.82;;;;;;;-2.62;78.59;97506.13;5112415;27;20135;-64
2021/03/01 00:31:08;;;;;;;21.50;8.98;;;;;;;0.71;79.61;98052.44;5127834;27;20049;-62
2021/03/01 00:33:52;;;;;;;28.83;11.50;;;;;;;0.73;79.66;98046.72;5112141;27;20565;-62
2021/03/01 00:36:36;;;;;;;23.80;9.27;;;;;;;-0.19;79.83;97973.94;5127471;27;20106;-62
2021/03/01 00:39:20;;;;;;;21.73;8.88;;;;;;;0.55;80.87;98034.59;5127543;27;20050;-62
2021/03/01 00:42:04;;;;;;;19.13;6.93;;;;;;;-0.28;80.20;97902.09;5127709;27;20104;-62
2021/03/01 00:44:49;;;;;;;19.73;7.93;;;;;;;0.46;81.31;98030.78;5127910;27;20038;-62
2021/03/01 00:47:34;;;;;;;18.75;7.85;;;;;;;0.11;80.88;98017.38;5127321;27;20572;-65
2021/03/01 00:50:19;;;;;;;18.45;7.32;;;;;;;0.07;80.86;97948.22;5111463;27;20570;-65
2021/03/01 00:53:03;;;;;;;16.00;6.10;;;;;;;0.40;80.67;98007.41;5127620;27;20557;-63
2021/03/01 00:55:47;;;;;;;15.13;5.90;;;;;;;-0.18;81.73;97923.84;5127181;27;20058;-63
2021/03/01 00:58:31;;;;;;;14.65;6.25;;;;;;;0.41;80.88;98009.03;5126988;27;20050;-63
2021/03/01 01:01:15;;;;;;;13.65;5.65;;;;;;;0.41;80.05;98019.13;5111589;27;20034;-63
2021/03/01 01:03:59;;;;;;;11.25;6.03;;;;;;;0.34;80.29;98005.81;5127640;27;20050;-63
2021/03/01 01:06:43;;;;;;;9.88;5.38;;;;;;;0.38;81.51;98004.13;5111432;27;20605;-62
2021/03/01 01:09:27;;;;;;;13.88;5.15;;;;;;;0.30;81.67;98002.00;5111326;27;20163;-63
2021/03/01 01:12:10;;;;;;;14.73;5.85;;;;;;;0.31;81.44;97992.75;5111226;27;20496;-63
2021/03/01 01:14:55;;;;;;;14.73;5.57;;;;;;;0.32;81.73;98004.47;5126530;27;20055;-62
2021/03/01 01:17:38;;;;;;;43.90;17.42;;;;;;;0.38;81.46;97979.63;5111212;27;20089;-64
2021/03/01 01:20:23;;;;;;;12.80;5.85;;;;;;;0.51;81.69;97992.63;5127011;27;20045;-65
2021/03/01 01:23:07;;;;;;;14.63;5.95;;;;;;;0.51;80.39;98014.41;5127277;27;20099;-63
2021/03/01 01:25:51;;;;;;;22.50;9.30;;;;;;;0.54;79.75;97981.16;5111298;27;20131;-64
2021/03/01 01:28:35;;;;;;;25.15;9.40;;;;;;;0.48;79.21;97979.56;5111340;27;20054;-64
2021/03/01 01:31:19;;;;;;;21.45;9.18;;;;;;;-0.53;80.96;97818.72;5126165;27;20149;-63
2021/03/01 01:34:03;;;;;;;23.23;9.93;;;;;;;0.41;81.11;97970.88;5127002;27;20100;-63
2021/03/01 01:36:47;;;;;;;34.33;18.85;;;;;;;0.03;80.23;97922.66;5126412;27;20046;-64
2021/03/01 01:39:31;;;;;;;28.33;13.02;;;;;;;-0.48;80.92;97821.41;5111151;27;20080;-63
2021/03/01 01:42:15;;;;;;;18.38;9.98;;;;;;;0.25;80.55;97939.41;5126559;27;20093;-63
2021/03/01 01:45:00;;;;;;;27.70;10.38;;;;;;;-0.46;79.74;97842.91;5126396;27;20060;-64
2021/03/01 01:47:45;;;;;;;23.70;10.07;;;;;;;-0.77;80.38;97773.41;5125273;27;20053;-66
2021/03/01 01:50:31;;;;;;;18.20;8.82;;;;;;;0.34;80.10;97954.03;5110445;27;20073;-65
2021/03/01 01:53:14;;;;;;;20.65;9.75;;;;;;;0.40;80.24;97954.81;5110474;27;20558;-65
2021/03/01 01:55:59;;;;;;;26.35;11.77;;;;;;;-0.16;81.02;97867.22;5110626;27;20058;-65
2021/03/01 01:58:44;;;;;;;24.42;11.20;;;;;;;0.45;81.68;97961.06;5126576;27;20519;-65
2021/03/01 02:01:28;;;;;;;27.90;13.43;;;;;;;0.50;81.86;97954.75;5110528;27;20046;-63
2021/03/01 02:04:24;;;;;;;22.27;9.30;;;;;;;-0.10;81.49;97876.97;5110198;27;20839;-63
2021/03/01 02:07:20;;;;;;;40.45;14.13;;;;;;;0.31;81.75;97932.00;5109531;27;20042;-64
2021/03/01 02:10:27;;;;;;;34.45;12.80;;;;;;;0.44;82.28;97948.53;5104961;28;20081;-64
2021/03/01 02:13:23;;;;;;;33.90;13.10;;;;;;;-0.31;82.80;97837.34;5105484;28;20051;-63
2021/03/01 02:16:26;;;;;;;59.55;22.02;;;;;;;0.37;81.95;97942.56;5089198;28;20058;-64
2021/03/01 02:19:12;;;;;;;42.63;18.10;;;;;;;0.32;82.21;97933.63;5105269;28;20108;-65
2021/03/01 02:21:56;;;;;;;29.48;12.75;;;;;;;0.28;82.81;97933.38;5105129;28;20430;-64
2021/03/01 02:24:44;;;;;;;31.90;11.98;;;;;;;-0.22;83.79;97874.59;5105055;28;20566;-64
2021/03/01 02:27:31;;;;;;;31.33;12.07;;;;;;;-2.00;83.78;97564.25;5089054;28;20077;-63
2021/03/01 02:30:49;;;;;;;34.33;11.20;;;;;;;0.30;83.91;97931.16;5104740;28;20038;-64
2021/03/01 02:33:38;;;;;;;13.35;6.47;;;;;;;-0.73;82.86;97805.22;5101626;28;20062;-66
2021/03/01 02:36:30;;;;;;;29.00;9.35;;;;;;;0.09;83.01;97905.19;5104827;28;20521;-66
2021/03/01 02:39:17;;;;;;;28.83;11.27;;;;;;;-0.03;84.17;97934.63;5089353;28;20555;-64
2021/03/01 02:42:03;;;;;;;15.85;6.80;;;;;;;-0.75;87.32;97928.97;5089059;28;20057;-64
2021/03/01 02:44:48;;;;;;;15.63;6.45;;;;;;;-0.84;88.47;97925.19;5104313;28;20043;-63
2021/03/01 02:47:34;;;;;;;17.98;8.32;;;;;;;-0.67;89.40;97920.25;5104918;28;20385;-65
2021/03/01 02:50:19;;;;;;;15.30;6.78;;;;;;;-0.89;88.95;97926.03;5104585;28;20089;-65
2021/03/01 02:53:03;;;;;;;14.43;6.97;;;;;;;-0.90;89.59;97926.31;5105170;28;20457;-63
2021/03/01 02:55:50;;;;;;;17.35;9.18;;;;;;;-0.83;89.94;97937.69;5105351;28;20482;-63
2021/03/01 02:58:36;;;;;;;48.72;23.23;;;;;;;-0.66;89.87;97939.00;5104896;28;20063;-63
2021/03/01 03:01:21;;;;;;;20.33;9.63;;;;;;;-0.68;89.86;97897.66;5104470;28;20059;-64
2021/03/01 03:04:07;;;;;;;14.68;7.53;;;;;;;-1.84;88.41;97693.41;5104736;28;20115;-64
2021/03/01 03:06:53;;;;;;;16.52;7.18;;;;;;;-1.61;87.08;97710.97;5103925;28;20054;-64
2021/03/01 03:09:38;;;;;;;21.77;10.18;;;;;;;-0.72;86.66;97865.84;5122061;27;20543;-64
2021/03/01 03:12:25;;;;;;;16.17;7.68;;;;;;;-0.10;85.80;97942.31;5124809;27;20421;-65
2021/03/01 03:15:14;;;;;;;16.25;8.00;;;;;;;-0.31;86.78;97902.69;5124643;27;20494;-64
2021/03/01 03:18:00;;;;;;;24.00;11.40;;;;;;;-0.17;86.83;97930.91;5124878;27;20054;-66
2021/03/01 03:20:45;;;;;;;31.80;14.60;;;;;;;-0.09;86.48;97928.44;5108599;27;20536;-64
2021/03/01 03:23:29;;;;;;;28.00;14.75;;;;;;;-0.16;86.85;97932.56;5124734;27;20645;-65
2021/03/01 03:26:13;;;;;;;24.23;11.18;;;;;;;-0.15;86.07;97928.72;5108355;28;20089;-65
2021/03/01 03:28:58;;;;;;;28.60;13.07;;;;;;;-0.11;86.65;97924.34;5124839;28;20566;-65
2021/03/01 03:31:42;;;;;;;25.38;12.57;;;;;;;-0.53;85.97;97856.81;5108874;28;20041;-65
2021/03/01 03:34:26;;;;;;;25.02;10.77;;;;;;;-0.15;85.16;97923.28;5108896;28;20073;-65
2021/03/01 03:37:20;;;;;;;19.98;8.75;;;;;;;-0.65;87.19;97863.66;5124289;28;20088;-65
2021/03/01 03:40:06;;;;;;;19.25;8.07;;;;;;;-0.42;87.62;97906.53;5124268;28;20046;-65
2021/03/01 03:42:51;;;;;;;19.23;8.68;;;;;;;-1.11;87.73;97788.78;5124339;28;20115;-64
2021/03/01 03:45:35;;;;;;;14.45;6.88;;;;;;;-0.18;88.14;97929.28;5124059;28;20035;-65
2021/03/01 03:48:23;;;;;;;22.83;9.90;;;;;;;-0.57;87.19;97871.25;5124928;28;20100;-67
2021/03/01 03:51:11;;;;;;;14.88;7.28;;;;;;;-0.71;86.80;97851.19;5124404;28;20034;-65
2021/03/01 03:54:02;;;;;;;25.25;10.70;;;;;;;-0.15;86.33;97928.72;5124939;27;20054;-65
2021/03/01 03:56:51;;;;;;;19.02;9.95;;;;;;;-0.24;86.32;97931.22;5128559;27;20312;-65
2021/03/01 03:59:39;;;;;;;21.17;11.82;;;;;;;-0.34;86.67;97925.00;5112992;27;20495;-64
2021/03/01 04:02:24;;;;;;;18.95;8.65;;;;;;;-0.83;86.47;97878.69;5128282;27;20597;-64
2021/03/01 04:05:12;;;;;;;19.13;10.07;;;;;;;-0.10;85.09;97939.59;5128534;27;20504;-64
2021/03/01 04:07:58;;;;;;;21.05;9.40;;;;;;;-0.11;85.13;97937.94;5112296;27;20568;-63
2021/03/01 04:10:45;;;;;;;31.20;12.80;;;;;;;-0.17;84.71;97937.19;5128119;27;20417;-64
2021/03/01 04:13:31;;;;;;;19.70;8.90;;;;;;;-3.74;85.22;97411.75;5128490;27;20135;-64
2021/03/01 04:16:16;;;;;;;35.58;15.20;;;;;;;-0.39;86.88;97933.19;5111755;27;20085;-63
2021/03/01 04:19:05;;;;;;;55.78;23.52;;;;;;;-0.38;86.56;97932.91;5128324;27;20041;-64
2021/03/01 04:21:52;;;;;;;47.63;20.13;;;;;;;-3.12;86.09;97509.75;5127769;27;20100;-63
2021/03/01 04:24:39;;;;;;;55.90;23.13;;;;;;;-4.08;85.66;97354.66;5128061;27;20476;-64
2021/03/01 04:27:24;;;;;;;53.20;23.75;;;;;;;-0.78;86.58;97875.13;5112514;27;20122;-65
2021/03/01 04:30:10;;;;;;;36.70;16.95;;;;;;;-0.57;87.06;97882.13;5111779;27;20100;-66
2021/03/01 04:32:55;;;;;;;29.33;10.70;;;;;;;-0.51;88.13;97924.53;5127858;27;20622;-65
2021/03/01 04:35:40;;;;;;;28.45;10.23;;;;;;;-0.43;87.57;97930.19;5127391;27;20042;-65
2021/03/01 04:38:24;;;;;;;23.20;10.77;;;;;;;-0.40;88.14;97948.72;5127791;27;20050;-65
2021/03/01 04:41:09;;;;;;;23.08;11.95;;;;;;;-0.87;88.16;97860.50;5111470;27;20470;-65
2021/03/01 04:43:55;;;;;;;24.83;12.90;;;;;;;-0.40;88.16;97912.53;5127840;27;20119;-65
2021/03/01 04:46:43;;;;;;;26.45;11.48;;;;;;;-1.18;88.82;97853.50;5127627;27;20042;-66
2021/03/01 04:49:28;;;;;;;29.33;11.13;;;;;;;-0.90;88.06;97828.41;5111606;27;20048;-66
2021/03/01 04:52:14;;;;;;;33.10;15.43;;;;;;;-0.38;87.12;97902.19;5127218;27;20107;-66
2021/03/01 04:55:01;;;;;;;37.78;17.23;;;;;;;-0.32;86.35;97917.38;5127402;27;20107;-66
2021/03/01 04:57:46;;;;;;;51.95;23.67;;;;;;;-2.80;87.18;97528.41;5127342;27;20107;-66
2021/03/01 05:00:32;;;;;;;31.52;15.63;;;;;;;-0.71;86.67;97870.22;5111245;27;20503;-66
2021/03/01 05:03:16;;;;;;;39.63;16.10;;;;;;;-0.94;87.60;97857.22;5111728;27;20046;-66
2021/03/01 05:06:03;;;;;;;33.47;13.75;;;;;;;-0.43;86.89;97937.56;5110130;27;20096;-66
2021/03/01 05:08:48;;;;;;;37.33;14.85;;;;;;;-0.44;87.23;97919.59;5111024;27;20132;-67
2021/03/01 05:11:38;;;;;;;43.50;17.98;;;;;;;-1.30;86.35;97768.75;5127147;27;20531;-67
2021/03/01 05:14:22;;;;;;;31.48;14.13;;;;;;;-0.48;86.46;97927.53;5126809;27;20767;-67
2021/03/01 05:17:06;;;;;;;36.20;16.13;;;;;;;-0.93;88.36;97943.16;5126831;27;20081;-65
2021/03/01 05:19:50;;;;;;;102.68;41.13;;;;;;;-0.41;86.65;97957.16;5110864;27;20095;-66
2021/03/01 05:22:34;;;;;;;28.30;13.23;;;;;;;-1.01;90.42;97947.22;5126909;27;20465;-65
2021/03/01 05:25:18;;;;;;;33.58;16.88;;;;;;;-0.66;90.63;97938.19;5126479;27;20083;-65
2021/03/01 05:28:02;;;;;;;55.70;21.27;;;;;;;-0.30;88.62;97942.44;5126960;27;20130;-66
2021/03/01 05:30:47;;;;;;;55.28;23.75;;;;;;;-0.03;87.57;97942.81;5126509;27;20034;-66
2021/03/01 05:33:31;;;;;;;57.88;28.27;;;;;;;-0.44;86.24;97827.09;5126482;27;20108;-66
2021/03/01 05:36:15;;;;;;;65.85;30.13;;;;;;;-0.29;84.36;97829.72;5126258;27;20104;-66
2021/03/01 05:38:59;;;;;;;69.28;31.95;;;;;;;0.47;84.73;97920.72;5127010;27;20046;-67
2021/03/01 05:41:46;;;;;;;65.18;31.08;;;;;;;0.40;84.39;97935.72;5126583;27;20114;-68
2021/03/01 05:44:30;;;;;;;68.40;30.60;;;;;;;0.71;84.70;97948.06;5126002;27;20116;-65
2021/03/01 05:47:14;;;;;;;55.08;25.90;;;;;;;-0.13;83.44;97877.53;5109979;27;20444;-65
2021/03/01 05:49:59;;;;;;;30.35;15.15;;;;;;;0.30;81.88;97783.25;5126236;27;20034;-65
2021/03/01 05:52:48;;;;;;;30.85;13.23;;;;;;;1.32;80.88;97932.72;5126566;27;20171;-65
2021/03/01 05:55:32;;;;;;;28.42;13.63;;;;;;;1.04;81.54;97920.72;5126012;27;20087;-65
2021/03/01 05:58:18;;;;;;;26.33;13.15;;;;;;;-1.36;80.46;97482.72;5110377;27;20119;-66
2021/03/01 06:01:07;;;;;;;50.22;25.60;;;;;;;1.47;79.59;97873.31;5110112;27;20517;-66
2021/03/01 06:03:51;;;;;;;68.60;36.33;;;;;;;1.96;79.35;97921.31;5124814;27;20438;-66
2021/03/01 06:06:35;;;;;;;90.57;44.70;;;;;;;1.49;78.25;97802.88;5125399;27;20130;-67
2021/03/01 06:09:21;;;;;;;65.82;33.05;;;;;;;2.44;78.27;97922.78;5126053;27;20096;-67
2021/03/01 06:12:06;;;;;;;51.70;21.13;;;;;;;2.37;75.60;97905.97;5110065;27;20196;-66
2021/03/01 06:14:50;;;;;;;48.17;19.95;;;;;;;2.51;75.68;97917.78;5125430;27;20062;-66
2021/03/01 06:17:34;;;;;;;44.45;18.95;;;;;;;2.51;74.81;97945.13;5125501;27;20100;-65
2021/03/01 06:20:21;;;;;;;49.30;21.48;;;;;;;2.35;73.58;97827.00;5125573;27;20042;-67
2021/03/01 06:23:05;;;;;;;30.45;15.45;;;;;;;3.16;73.55;97930.34;5109703;27;20230;-67
2021/03/01 06:25:49;;;;;;;42.92;18.10;;;;;;;2.09;73.11;97718.38;5125235;27;20034;-68
2021/03/01 06:28:33;;;;;;;38.08;21.02;;;;;;;3.24;74.12;97888.56;5125758;27;20054;-68
2021/03/01 06:31:38;;;;;;;24.98;13.20;;;;;;;2.32;72.65;97709.22;5124238;27;20061;-64
2021/03/01 06:34:30;;;;;;;26.13;13.07;;;;;;;3.70;72.79;97930.38;5111918;27;20530;-66
2021/03/01 06:37:16;;;;;;;29.15;16.70;;;;;;;3.74;72.65;97990.88;5104405;28;20078;-70
2021/03/01 06:40:00;;;;;;;25.75;13.15;;;;;;;2.59;71.95;97739.34;5107662;27;20061;-65
2021/03/01 06:42:44;;;;;;;21.63;11.63;;;;;;;2.12;73.35;97674.09;5104109;28;20574;-69
2021/03/01 06:45:28;;;;;;;21.35;11.88;;;;;;;2.94;74.04;97790.66;5117758;27;20096;-65
2021/03/01 06:48:12;;;;;;;23.90;11.77;;;;;;;2.66;74.45;97739.75;5096099;27;20069;-64
2021/03/01 06:50:56;;;;;;;67.07;30.30;;;;;;;2.29;74.01;97690.72;5114829;27;20080;-67
2021/03/01 06:53:41;;;;;;;54.00;29.92;;;;;;;2.28;73.26;97709.03;5111606;27;20046;-67
2021/03/01 06:56:39;;;;;;;42.20;21.63;;;;;;;3.02;74.02;97787.19;5104648;28;20034;-65
2021/03/01 06:59:24;;;;;;;43.58;23.58;;;;;;;4.10;71.16;97891.19;5108289;27;20062;-66
2021/03/01 07:02:08;;;;;;;32.72;18.20;;;;;;;3.00;68.86;97658.88;5103977;28;20525;-72
2021/03/01 07:04:56;;;;;;;44.35;21.25;;;;;;;4.95;68.38;97947.91;5115362;27;20076;-63
2021/03/01 07:07:40;;;;;;;42.55;22.17;;;;;;;4.98;67.58;97878.66;5097253;28;20046;-71
2021/03/01 07:10:35;;;;;;;44.53;21.27;;;;;;;5.93;65.98;97950.22;5099625;27;20120;-72
2021/03/01 07:13:31;;;;;;;30.67;15.10;;;;;;;5.49;64.04;97796.47;5093733;27;20042;-67
2021/03/01 07:16:16;;;;;;;34.30;18.83;;;;;;;6.23;62.05;97866.81;5124001;27;20611;-67
2021/03/01 07:19:02;;;;;;;26.48;13.50;;;;;;;7.03;59.93;97932.25;5125286;27;20050;-66
2021/03/01 07:21:48;;;;;;;24.98;13.65;;;;;;;6.80;58.97;97832.47;5109781;27;20114;-67
2021/03/01 07:24:33;;;;;;;19.27;12.45;;;;;;;7.57;57.70;97939.78;5115861;27;20066;-69
2021/03/01 07:27:19;;;;;;;18.17;11.55;;;;;;;8.02;57.08;97918.00;5115585;27;20131;-69
2021/03/01 07:29:49;;;;;;;54.08;23.33;;;;;;;8.16;57.13;97913.03;5094469;28;20541;-62
2021/03/01 07:32:20;;;;;;;32.47;16.48;;;;;;;8.44;56.36;97897.66;5102730;28;20054;-62
2021/03/01 07:34:46;;;;;;;27.08;13.40;;;;;;;8.42;55.90;97888.88;5103696;28;20027;-69
2021/03/01 07:37:12;;;;;;;33.55;16.88;;;;;;;8.63;55.13;97851.84;5103613;28;20043;-68
2021/03/01 07:39:38;;;;;;;45.80;24.10;;;;;;;7.62;53.67;97683.97;5087416;28;20035;-72
2021/03/01 07:42:05;;;;;;;34.72;18.98;;;;;;;8.94;53.26;97744.47;5103924;28;20032;-66
2021/03/01 07:44:33;;;;;;;70.28;35.38;;;;;;;9.04;52.38;97719.13;5093164;28;20297;-65
2021/03/01 07:47:02;;;;;;;34.85;20.42;;;;;;;10.13;52.18;97874.88;5103897;28;20586;-67
2021/03/01 07:49:48;;;;;;;22.50;9.02;;;;;;;9.78;50.57;97826.69;5103762;28;20039;-68
2021/03/01 07:52:19;;;;;;;18.08;11.23;;;;;;;10.22;50.83;97881.13;5103500;28;20122;-68
2021/03/01 07:54:56;;;;;;;14.90;10.10;;;;;;;10.14;50.72;97873.75;5119896;28;20056;-67
2021/03/01 07:57:27;;;;;;;17.05;9.65;;;;;;;10.18;51.53;97880.19;5121189;28;20502;-69
2021/03/01 07:59:53;;;;;;;20.88;10.77;;;;;;;9.89;51.08;97793.81;5120128;28;20393;-63
2021/03/01 08:02:34;;;;;;;14.70;8.65;;;;;;;10.92;49.87;97876.94;5103621;28;20032;-68
2021/03/01 08:05:19;;;;;;;14.27;8.13;;;;;;;8.41;48.57;97401.44;5111383;28;20608;-73
2021/03/01 08:07:45;;;;;;;12.85;7.13;;;;;;;10.94;47.54;97785.09;5123235;28;20039;-66
2021/03/01 08:10:32;;;;;;;22.35;10.50;;;;;;;10.48;45.43;97679.31;5121432;28;20046;-64
2021/03/01 08:13:05;;;;;;;11.45;7.43;;;;;;;12.04;43.62;97868.06;5089954;28;20095;-70
2021/03/01 08:15:36;;;;;;;9.70;6.75;;;;;;;12.17;43.81;97866.81;5119543;28;20047;-70
2021/03/01 08:18:02;;;;;;;15.35;7.65;;;;;;;12.33;42.24;97859.22;5127809;27;20031;-68
2021/03/01 08:20:34;;;;;;;31.45;17.48;;;;;;;12.32;42.00;97873.47;5117260;28;20523;-69
2021/03/01 08:23:06;;;;;;;64.03;32.97;;;;;;;12.32;41.66;97873.47;5111099;28;20043;-66
2021/03/01 08:25:44;;;;;;;55.58;28.58;;;;;;;12.46;41.00;97863.50;5110755;28;20043;-67
2021/03/01 08:28:32;;;;;;;59.72;32.35;;;;;;;12.61;39.74;97859.88;5097723;28;20477;-68
2021/03/01 08:31:09;;;;;;;14.48;9.18;;;;;;;12.28;39.83;97856.75;5083383;28;20035;-70
2021/03/01 08:33:36;;;;;;;62.67;34.67;;;;;;;12.30;39.33;97859.94;5123006;28;20035;-68
2021/03/01 08:36:01;;;;;;;15.82;8.73;;;;;;;12.27;39.31;97859.84;5100913;28;20119;-67
2021/03/01 08:38:43;;;;;;;13.27;9.43;;;;;;;12.07;40.65;97864.56;5084569;28;20119;-68
2021/03/01 08:41:10;;;;;;;14.20;6.80;;;;;;;10.31;43.28;97784.06;5110812;27;20027;-72
2021/03/01 08:43:38;;;;;;;22.23;13.13;;;;;;;10.60;43.20;97769.88;5126848;27;20035;-69
2021/03/01 08:46:16;;;;;;;14.02;8.90;;;;;;;10.92;42.81;97771.59;5117341;27;20031;-71
2021/03/01 08:48:47;;;;;;;14.50;9.02;;;;;;;11.52;42.13;97818.34;5110192;27;20039;-68
2021/03/01 08:51:14;;;;;;;21.20;12.98;;;;;;;12.12;40.95;97869.84;5102598;27;20489;-64
2021/03/01 08:53:40;;;;;;;15.18;8.05;;;;;;;11.97;38.77;97868.69;5127381;27;20546;-64
2021/03/01 08:56:20;;;;;;;12.25;6.97;;;;;;;11.03;41.40;97844.75;5127292;27;20043;-68
2021/03/01 08:58:45;;;;;;;20.77;11.82;;;;;;;10.75;40.51;97748.94;5125277;27;20023;-63
2021/03/01 09:01:11;;;;;;;10.63;8.07;;;;;;;9.08;40.72;97514.75;5120454;27;20080;-66
2021/03/01 09:03:45;;;;;;;11.02;6.72;;;;;;;11.30;39.76;97871.63;5099431;28;20586;-69
2021/03/01 09:06:16;;;;;;;17.17;10.98;;;;;;;10.16;39.23;97655.47;5109661;27;20570;-69
2021/03/01 09:08:45;;;;;;;19.35;12.43;;;;;;;11.51;39.49;97861.13;5112957;27;20023;-66
2021/03/01 09:11:17;;;;;;;12.60;7.68;;;;;;;11.69;38.72;97864.41;5125448;27;20043;-70
2021/03/01 09:14:00;;;;;;;11.68;8.07;;;;;;;11.25;38.03;97796.22;5115845;27;20053;-67
2021/03/01 09:16:28;;;;;;;8.00;6.18;;;;;;;9.70;39.40;97689.28;5087705;28;20048;-68
2021/03/01 09:19:13;;;;;;;10.73;7.75;;;;;;;10.57;38.99;97804.63;5122801;27;20508;-67
2021/03/01 09:21:43;;;;;;;11.25;6.70;;;;;;;10.79;40.15;97874.53;5128683;27;20886;-65
2021/03/01 09:24:13;;;;;;;37.53;17.33;;;;;;;9.84;40.46;97752.53;5106922;27;20032;-69
2021/03/01 09:26:45;;;;;;;54.25;21.98;;;;;;;10.43;41.18;97878.22;5112785;27;20033;-66
2021/03/01 09:29:12;;;;;;;81.43;29.95;;;;;;;10.20;41.94;97875.13;5087074;28;20038;-65
2021/03/01 09:31:43;;;;;;;116.22;44.35;;;;;;;9.88;41.39;97787.47;5114707;27;20041;-70
2021/03/01 09:34:10;;;;;;;42.65;17.27;;;;;;;10.19;41.59;97886.53;5099548;28;20031;-68
2021/03/01 09:36:37;;;;;;;39.85;18.10;;;;;;;7.95;40.90;97512.22;5108514;27;20031;-68
2021/03/01 09:39:08;;;;;;;18.50;10.73;;;;;;;9.73;41.14;97840.75;5126313;27;20425;-69
2021/03/01 09:41:38;;;;;;;45.75;22.83;;;;;;;9.67;41.60;97820.00;5124305;27;20024;-69
2021/03/01 09:44:05;;;;;;;31.63;14.00;;;;;;;10.19;41.20;97881.81;5097606;28;20127;-69
2021/03/01 09:46:31;;;;;;;12.68;7.95;;;;;;;9.00;41.43;97756.09;5110137;27;20027;-73
2021/03/01 09:49:03;;;;;;;10.77;6.75;;;;;;;10.15;40.76;97880.88;5115903;27;20538;-68
2021/03/01 09:51:30;;;;;;;10.07;7.47;;;;;;;10.36;40.70;97884.34;5112480;27;20391;-68
2021/03/01 09:54:06;;;;;;;12.70;7.28;;;;;;;10.66;40.00;97884.84;5122165;27;20584;-65
2021/03/01 09:56:41;;;;;;;9.43;7.20;;;;;;;10.27;40.10;97880.06;5126077;27;20035;-65
2021/03/01 09:59:07;;;;;;;9.95;7.05;;;;;;;9.96;39.31;97778.22;5118751;27;20035;-68
2021/03/01 10:01:33;;;;;;;12.90;6.60;;;;;;;9.56;39.83;97801.44;5121745;27;20080;-64
2021/03/01 10:03:59;;;;;;;9.55;6.70;;;;;;;10.36;39.71;97881.56;5124189;27;20493;-73
2021/03/01 10:06:36;;;;;;;18.35;11.82;;;;;;;10.51;40.13;97883.59;5116046;27;20082;-69
2021/03/01 10:09:11;;;;;;;24.27;13.52;;;;;;;10.02;41.05;97879.22;5104454;28;20096;-70
2021/03/01 10:11:38;;;;;;;18.95;9.65;;;;;;;10.56;39.99;97886.13;5105828;27;20063;-71
2021/03/01 10:14:12;;;;;;;14.98;10.27;;;;;;;11.00;39.15;97884.25;5110294;27;20494;-70
2021/03/01 10:16:41;;;;;;;17.52;9.95;;;;;;;10.38;38.66;97735.25;5106602;27;20390;-77
2021/03/01 10:19:23;;;;;;;14.07;8.40;;;;;;;10.86;38.62;97883.06;5103272;27;20036;-69
2021/03/01 10:21:50;;;;;;;20.60;13.60;;;;;;;10.11;38.84;97705.56;5110467;27;20130;-72
2021/03/01 10:24:18;;;;;;;15.68;11.02;;;;;;;10.22;37.81;97681.78;5119341;27;20027;-68
2021/03/01 10:26:50;;;;;;;18.52;11.38;;;;;;;11.85;38.34;97876.31;5105454;27;20033;-69
2021/03/01 10:29:16;;;;;;;19.73;10.05;;;;;;;10.86;36.82;97727.84;5089768;28;20136;-72
2021/03/01 10:31:41;;;;;;;12.82;9.05;;;;;;;12.11;36.68;97896.00;5104535;28;20023;-73
2021/03/01 10:34:14;;;;;;;15.02;10.35;;;;;;;10.79;38.53;97893.94;5110979;27;20031;-70
2021/03/01 10:36:40;;;;;;;17.42;12.20;;;;;;;8.93;38.99;97540.34;5106401;27;20028;-67
2021/03/01 10:39:15;;;;;;;22.73;13.82;;;;;;;10.52;40.20;97871.38;5086065;28;20085;-65
2021/03/01 10:41:44;;;;;;;20.70;9.93;;;;;;;10.39;40.44;97846.81;5104308;28;20667;-66
2021/03/01 10:44:10;;;;;;;14.77;9.98;;;;;;;9.69;40.53;97690.41;5104558;28;20062;-66
2021/03/01 10:46:49;;;;;;;14.05;8.13;;;;;;;9.98;40.39;97814.66;5102983;28;20102;-66
2021/03/01 10:49:30;;;;;;;14.93;9.40;;;;;;;10.33;40.29;97882.25;5085998;28;20485;-66
2021/03/01 10:51:58;;;;;;;11.35;8.57;;;;;;;10.23;40.94;97888.25;5111745;27;20564;-66
2021/03/01 10:54:27;;;;;;;12.60;8.18;;;;;;;9.46;41.65;97819.28;5106621;27;20031;-65
2021/03/01 10:56:54;;;;;;;15.73;8.80;;;;;;;8.88;40.72;97698.84;5124302;27;20026;-66
2021/03/01 10:59:22;;;;;;;11.88;7.35;;;;;;;9.38;41.68;97850.59;5124934;27;20035;-65
2021/03/01 11:01:51;;;;;;;16.45;7.95;;;;;;;9.00;42.01;97756.09;5124048;27;20505;-67
2021/03/01 11:04:19;;;;;;;9.65;7.40;;;;;;;10.35;40.40;97885.47;5123242;27;20049;-67
2021/03/01 11:06:47;;;;;;;11.18;7.28;;;;;;;10.23;40.51;97882.72;5124221;27;20458;-66
2021/03/01 11:09:16;;;;;;;15.68;8.00;;;;;;;10.40;40.11;97854.78;5124847;27;20035;-66
2021/03/01 11:11:42;;;;;;;10.20;7.80;;;;;;;10.90;39.15;97872.88;5105594;27;20532;-67
2021/03/01 11:14:09;;;;;;;12.65;8.25;;;;;;;10.33;40.39;97885.03;5105683;27;20088;-67
2021/03/01 11:16:35;;;;;;;31.00;19.50;;;;;;;10.68;40.59;97872.25;5124023;27;20079;-66
2021/03/01 11:19:01;;;;;;;17.70;8.35;;;;;;;8.25;39.89;97447.44;5124701;27;20513;-67
2021/03/01 11:21:27;;;;;;;10.30;6.95;;;;;;;10.16;39.46;97799.44;5123757;27;20118;-66
2021/03/01 11:23:52;;;;;;;9.07;6.97;;;;;;;9.93;39.37;97820.44;5104048;28;20024;-66
2021/03/01 11:26:18;;;;;;;13.10;8.30;;;;;;;10.58;40.59;97869.97;5104583;28;20119;-68
2021/03/01 11:28:44;;;;;;;13.27;8.38;;;;;;;10.84;39.75;97874.28;5106042;28;20035;-69
2021/03/01 11:31:11;;;;;;;15.07;9.55;;;;;;;9.97;41.19;97779.84;5119812;28;20134;-72
2021/03/01 11:33:38;;;;;;;15.63;8.70;;;;;;;10.35;42.33;97868.84;5095290;28;20038;-76
2021/03/01 11:36:04;;;;;;;11.35;8.50;;;;;;;9.67;43.00;97764.66;5105199;28;20056;-72
2021/03/01 11:38:30;;;;;;;15.10;9.43;;;;;;;10.25;43.48;97869.34;5112737;28;20123;-73
2021/03/01 11:40:57;;;;;;;13.27;8.38;;;;;;;9.76;42.08;97740.44;5106139;28;20512;-67
2021/03/01 11:43:23;;;;;;;12.07;7.60;;;;;;;9.90;43.47;97785.16;5124315;28;20043;-75
2021/03/01 11:45:49;;;;;;;14.73;9.73;;;;;;;8.91;44.44;97736.03;5122979;28;20152;-71
2021/03/01 11:48:15;;;;;;;19.42;9.85;;;;;;;9.59;46.61;97884.53;5109195;28;20075;-70
2021/03/01 11:50:43;;;;;;;16.50;9.82;;;;;;;7.95;46.76;97581.19;5111687;28;20023;-75
2021/03/01 11:53:09;;;;;;;10.07;7.32;;;;;;;9.08;47.76;97879.53;5091919;28;20045;-71
2021/03/01 11:55:38;;;;;;;9.75;6.72;;;;;;;9.02;48.19;97876.19;5116139;28;20114;-66
2021/03/01 11:58:03;;;;;;;14.48;9.05;;;;;;;8.23;48.97;97775.38;5120040;28;20119;-68
2021/03/01 12:00:31;;;;;;;14.85;8.43;;;;;;;7.64;49.50;97676.19;5103670;28;20095;-74
2021/03/01 12:03:00;;;;;;;13.63;9.10;;;;;;;8.83;50.39;97891.66;5107132;28;20059;-62
2021/03/01 12:05:25;;;;;;;12.07;8.73;;;;;;;8.55;50.59;97863.75;5104225;28;20557;-62
2021/03/01 12:07:51;;;;;;;13.50;8.85;;;;;;;7.94;51.55;97790.00;5103494;28;20046;-67
2021/03/01 12:10:17;;;;;;;20.15;9.38;;;;;;;4.52;52.90;97257.09;5110477;28;20039;-62
2021/03/01 12:12:43;;;;;;;14.00;10.25;;;;;;;8.14;54.22;97890.50;5102588;28;20035;-62
2021/03/01 12:15:10;;;;;;;13.48;6.93;;;;;;;6.96;55.10;97726.19;5102888;27;20796;-70
2021/03/01 12:17:36;;;;;;;19.38;8.98;;;;;;;7.68;57.47;97864.63;5109135;27;20116;-63
2021/03/01 12:20:06;;;;;;;11.50;8.02;;;;;;;7.02;58.50;97895.63;5088555;28;20024;-68